createdAt,value
2018-05-10T00:00:16.652Z,81.2
2018-05-10T00:01:16.752Z,81.3
2018-05-10T00:02:17.047Z,81.3
2018-05-10T00:03:16.422Z,81.7
2018-05-10T00:04:16.699Z,81.1
2018-05-10T00:05:17.000Z,81.0
2018-05-10T00:06:17.293Z,81.0
2018-05-10T00:07:16.564Z,80.8
2018-05-10T00:08:16.855Z,80.7
2018-05-10T00:09:17.125Z,80.2
2018-05-10T00:10:16.448Z,80.3
2018-05-10T00:11:16.469Z,80.6
2018-05-10T00:12:16.747Z,80.9
2018-05-10T00:13:17.023Z,80.8
2018-05-10T00:14:17.321Z,81.0
2018-05-10T00:15:16.603Z,80.7
2018-05-10T00:16:16.882Z,80.8
2018-05-10T00:17:17.165Z,80.4
2018-05-10T00:18:16.471Z,81.0
2018-05-10T00:19:16.747Z,81.1
2018-05-10T00:20:17.047Z,81.4
2018-05-10T00:21:17.092Z,81.9
2018-05-10T00:22:16.373Z,82.0
2018-05-10T00:23:16.672Z,82.3
2018-05-10T00:24:17.130Z,82.0
2018-05-10T00:25:16.449Z,82.1
2018-05-10T00:26:16.730Z,82.1
2018-05-10T00:27:17.017Z,82.2
2018-05-10T00:28:17.290Z,81.8
2018-05-10T00:29:16.569Z,81.7
2018-05-10T00:30:16.880Z,81.8
2018-05-10T00:31:16.927Z,81.7
2018-05-10T00:32:17.224Z,81.4
2018-05-10T00:33:16.508Z,81.2
2018-05-10T00:34:17.064Z,81.2
2018-05-10T00:35:16.350Z,81.3
2018-05-10T00:36:16.894Z,81.5
2018-05-10T00:37:17.186Z,81.7
2018-05-10T00:38:16.485Z,81.8
2018-05-10T00:39:16.779Z,81.8
2018-05-10T00:40:17.075Z,81.8
2018-05-10T00:41:17.096Z,81.7
2018-05-10T00:42:16.371Z,81.7
2018-05-10T00:43:16.652Z,81.8
2018-05-10T00:44:16.938Z,81.7
2018-05-10T00:45:17.232Z,81.8
2018-05-10T00:46:16.513Z,81.7
2018-05-10T00:47:16.786Z,81.7
2018-05-10T00:48:17.082Z,81.7
2018-05-10T00:49:16.363Z,81.6
2018-05-10T00:50:16.654Z,81.4
2018-05-10T00:51:16.695Z,81.2
2018-05-10T00:52:16.984Z,81.0
2018-05-10T00:53:17.262Z,81.0
2018-05-10T00:54:16.534Z,81.4
2018-05-10T00:55:16.814Z,80.8
2018-05-10T00:56:17.093Z,81.1
2018-05-10T00:57:16.372Z,81.3
2018-05-10T00:58:16.665Z,81.3
2018-05-10T00:59:16.941Z,81.5
2018-05-10T01:00:17.230Z,81.6
2018-05-10T01:01:17.288Z,81.6
2018-05-10T01:02:16.585Z,81.7
2018-05-10T01:03:16.865Z,81.9
2018-05-10T01:04:17.143Z,82.0
2018-05-10T01:05:16.430Z,82.0
2018-05-10T01:06:16.713Z,82.2
2018-05-10T01:07:16.986Z,82.2
2018-05-10T01:08:17.270Z,81.8
2018-05-10T01:09:16.572Z,81.8
2018-05-10T01:10:16.853Z,81.3
2018-05-10T01:11:16.890Z,81.5
2018-05-10T01:12:17.187Z,81.7
2018-05-10T01:13:16.475Z,81.5
2018-05-10T01:14:16.756Z,81.4
2018-05-10T01:15:17.043Z,81.6
2018-05-10T01:16:17.323Z,81.7
2018-05-10T01:17:16.613Z,81.8
2018-05-10T01:18:16.895Z,82.0
2018-05-10T01:19:17.182Z,82.1
2018-05-10T01:20:16.501Z,82.0
2018-05-10T01:21:16.529Z,81.9
2018-05-10T01:22:16.786Z,82.1
2018-05-10T01:23:17.070Z,82.0
2018-05-10T01:24:16.332Z,82.2
2018-05-10T01:25:16.630Z,81.8
2018-05-10T01:26:16.917Z,81.8
2018-05-10T01:27:17.215Z,81.9
2018-05-10T01:28:16.513Z,81.7
2018-05-10T01:29:16.784Z,81.8
2018-05-10T01:30:17.094Z,81.8
2018-05-10T01:31:17.102Z,81.8
2018-05-10T01:32:16.357Z,82.0
2018-05-10T01:33:16.699Z,82.1
2018-05-10T01:34:16.985Z,82.0
2018-05-10T01:35:17.283Z,82.1
2018-05-10T01:36:16.594Z,82.2
2018-05-10T01:37:16.900Z,82.5
2018-05-10T01:38:17.425Z,82.5
2018-05-10T01:39:16.710Z,82.5
2018-05-10T01:40:16.987Z,82.3
2018-05-10T01:41:17.023Z,82.5
2018-05-10T01:42:17.298Z,82.7
2018-05-10T01:43:16.577Z,83.0
2018-05-10T01:44:16.842Z,82.9
2018-05-10T01:45:17.126Z,83.5
2018-05-10T01:46:16.412Z,84.0
2018-05-10T01:47:16.701Z,84.1
2018-05-10T01:48:16.985Z,83.9
2018-05-10T01:49:17.261Z,83.9
2018-05-10T01:50:16.541Z,84.0
2018-05-10T01:51:16.595Z,84.0
2018-05-10T01:52:16.879Z,83.8
2018-05-10T01:53:17.154Z,83.8
2018-05-10T01:54:16.435Z,83.9
2018-05-10T01:55:16.737Z,83.9
2018-05-10T01:56:17.028Z,84.1
2018-05-10T01:57:17.308Z,84.2
2018-05-10T01:58:16.573Z,84.2
2018-05-10T01:59:16.842Z,84.3
2018-05-10T02:00:17.123Z,84.2
2018-05-10T02:01:17.156Z,84.1
2018-05-10T02:02:16.469Z,84.0
2018-05-10T02:03:16.763Z,84.2
2018-05-10T02:04:17.044Z,84.3
2018-05-10T02:05:16.325Z,84.4
2018-05-10T02:06:16.600Z,84.5
2018-05-10T02:07:16.877Z,84.5
2018-05-10T02:08:17.512Z,84.2
2018-05-10T02:09:16.813Z,84.1
2018-05-10T02:10:17.081Z,84.2
2018-05-10T02:11:17.149Z,84.3
2018-05-10T02:12:16.748Z,84.4
2018-05-10T02:13:17.025Z,84.0
2018-05-10T02:14:17.630Z,84.2
2018-05-10T02:15:16.912Z,84.3
2018-05-10T02:16:17.184Z,84.5
2018-05-10T02:17:16.472Z,84.5
2018-05-10T02:18:16.757Z,84.5
2018-05-10T02:19:17.050Z,84.7
2018-05-10T02:20:17.343Z,84.8
2018-05-10T02:21:16.434Z,84.8
2018-05-10T02:22:16.724Z,84.7
2018-05-10T02:23:17.021Z,84.8
2018-05-10T02:24:17.324Z,84.8
2018-05-10T02:25:16.607Z,85.1
2018-05-10T02:26:16.890Z,85.1
2018-05-10T02:27:17.174Z,84.8
2018-05-10T02:28:16.463Z,84.9
2018-05-10T02:29:16.734Z,84.9
2018-05-10T02:30:17.017Z,85.1
2018-05-10T02:31:17.057Z,85.3
2018-05-10T02:32:16.337Z,85.4
2018-05-10T02:33:16.618Z,85.5
2018-05-10T02:34:16.913Z,85.5
2018-05-10T02:35:17.202Z,85.3
2018-05-10T02:36:16.485Z,85.5
2018-05-10T02:37:16.766Z,85.7
2018-05-10T02:38:17.042Z,85.4
2018-05-10T02:39:17.328Z,85.2
2018-05-10T02:40:16.640Z,85.5
2018-05-10T02:41:16.682Z,85.4
2018-05-10T02:42:16.963Z,85.6
2018-05-10T02:43:17.250Z,85.3
2018-05-10T02:44:16.540Z,85.3
2018-05-10T02:45:16.822Z,85.5
2018-05-10T02:46:17.204Z,85.4
2018-05-10T02:47:16.499Z,85.5
2018-05-10T02:48:16.786Z,85.7
2018-05-10T02:49:17.174Z,85.5
2018-05-10T02:50:16.464Z,85.7
2018-05-10T02:51:16.529Z,85.5
2018-05-10T02:52:16.844Z,85.5
2018-05-10T02:53:17.143Z,85.5
2018-05-10T02:54:16.438Z,85.4
2018-05-10T02:55:16.726Z,85.3
2018-05-10T02:56:17.034Z,85.8
2018-05-10T02:57:17.322Z,85.8
2018-05-10T02:58:16.599Z,85.9
2018-05-10T02:59:16.888Z,85.8
2018-05-10T03:00:17.185Z,85.8
2018-05-10T03:01:17.234Z,85.8
2018-05-10T03:02:16.522Z,85.8
2018-05-10T03:03:16.807Z,85.8
2018-05-10T03:04:17.087Z,86.0
2018-05-10T03:05:16.363Z,86.0
2018-05-10T03:06:16.643Z,85.9
2018-05-10T03:07:16.924Z,85.9
2018-05-10T03:08:17.214Z,86.1
2018-05-10T03:09:16.500Z,86.2
2018-05-10T03:10:16.788Z,85.8
2018-05-10T03:11:16.825Z,85.7
2018-05-10T03:12:17.108Z,85.9
2018-05-10T03:13:16.410Z,85.7
2018-05-10T03:14:16.720Z,86.1
2018-05-10T03:15:17.015Z,85.8
2018-05-10T03:16:17.301Z,85.8
2018-05-10T03:17:16.581Z,85.8
2018-05-10T03:18:16.886Z,85.8
2018-05-10T03:19:17.157Z,85.9
2018-05-10T03:20:16.436Z,85.8
2018-05-10T03:21:16.466Z,85.8
2018-05-10T03:22:17.022Z,86.0
2018-05-10T03:23:17.286Z,85.8
2018-05-10T03:24:16.599Z,86.0
2018-05-10T03:25:16.904Z,86.0
2018-05-10T03:26:17.184Z,86.1
2018-05-10T03:27:16.460Z,86.1
2018-05-10T03:28:16.736Z,86.2
2018-05-10T03:29:17.025Z,86.2
2018-05-10T03:30:17.311Z,86.5
2018-05-10T03:31:16.367Z,86.6
2018-05-10T03:32:16.641Z,86.1
2018-05-10T03:33:17.026Z,86.3
2018-05-10T03:34:17.327Z,86.6
2018-05-10T03:35:16.619Z,85.7
2018-05-10T03:36:16.920Z,85.4
2018-05-10T03:37:17.250Z,86.0
2018-05-10T03:38:16.545Z,86.7
2018-05-10T03:39:16.845Z,86.5
2018-05-10T03:40:17.136Z,86.7
2018-05-10T03:41:17.191Z,85.6
2018-05-10T03:42:16.469Z,85.8
2018-05-10T03:43:16.745Z,86.5
2018-05-10T03:44:17.021Z,86.5
2018-05-10T03:45:17.315Z,86.7
2018-05-10T03:46:16.637Z,86.7
2018-05-10T03:47:16.930Z,86.7
2018-05-10T03:48:17.206Z,86.5
2018-05-10T03:49:16.499Z,86.7
2018-05-10T03:50:16.788Z,86.7
2018-05-10T03:51:16.837Z,86.7
2018-05-10T03:52:17.394Z,86.7
2018-05-10T03:53:16.688Z,86.6
2018-05-10T03:54:16.973Z,86.6
2018-05-10T03:55:17.248Z,86.4
2018-05-10T03:56:16.528Z,86.4
2018-05-10T03:57:16.820Z,86.3
2018-05-10T03:58:17.112Z,86.3
2018-05-10T03:59:16.396Z,86.2
2018-05-10T04:00:16.679Z,86.2
2018-05-10T04:01:16.723Z,86.2
2018-05-10T04:02:17.009Z,86.2
2018-05-10T04:03:17.311Z,86.3
2018-05-10T04:04:16.590Z,86.3
2018-05-10T04:05:16.866Z,86.2
2018-05-10T04:06:17.147Z,86.2
2018-05-10T04:07:16.432Z,85.8
2018-05-10T04:08:16.724Z,85.8
2018-05-10T04:09:16.994Z,85.5
2018-05-10T04:10:17.256Z,85.5
2018-05-10T04:11:17.307Z,85.5
2018-05-10T04:12:16.605Z,85.4
2018-05-10T04:13:16.906Z,85.4
2018-05-10T04:14:17.175Z,85.2
2018-05-10T04:15:16.473Z,85.2
2018-05-10T04:16:16.758Z,85.2
2018-05-10T04:17:17.041Z,85.1
2018-05-10T04:18:17.346Z,84.9
2018-05-10T04:19:16.626Z,84.7
2018-05-10T04:20:16.922Z,84.5
2018-05-10T04:21:16.952Z,84.4
2018-05-10T04:22:17.239Z,84.3
2018-05-10T04:23:16.530Z,84.3
2018-05-10T04:24:16.812Z,83.9
2018-05-10T04:25:17.095Z,83.8
2018-05-10T04:26:16.381Z,83.5
2018-05-10T04:27:16.654Z,83.5
2018-05-10T04:28:16.938Z,83.1
2018-05-10T04:29:17.219Z,82.7
2018-05-10T04:30:16.506Z,82.8
2018-05-10T04:31:16.557Z,82.9
2018-05-10T04:32:16.845Z,82.5
2018-05-10T04:33:17.143Z,82.4
2018-05-10T04:34:16.427Z,82.7
2018-05-10T04:35:16.710Z,82.3
2018-05-10T04:36:16.989Z,81.8
2018-05-10T04:37:17.271Z,81.5
2018-05-10T04:38:16.549Z,81.0
2018-05-10T04:39:16.833Z,80.8
2018-05-10T04:40:17.119Z,80.0
2018-05-10T04:41:17.157Z,80.3
2018-05-10T04:42:16.560Z,80.6
2018-05-10T04:43:16.940Z,80.4
2018-05-10T04:44:17.212Z,80.5
2018-05-10T04:45:16.512Z,80.2
2018-05-10T04:46:16.800Z,80.2
2018-05-10T04:47:17.080Z,80.2
2018-05-10T04:48:16.361Z,80.1
2018-05-10T04:49:16.704Z,80.1
2018-05-10T04:50:17.018Z,79.6
2018-05-10T04:51:17.035Z,79.4
2018-05-10T04:52:17.322Z,79.2
2018-05-10T04:53:16.609Z,79.1
2018-05-10T04:54:17.010Z,78.6
2018-05-10T04:55:17.292Z,78.4
2018-05-10T04:56:16.567Z,78.6
2018-05-10T04:57:16.862Z,78.4
2018-05-10T04:58:17.152Z,78.3
2018-05-10T04:59:16.439Z,77.6
2018-05-10T05:00:16.720Z,77.8
2018-05-10T05:01:16.791Z,77.5
2018-05-10T05:02:17.090Z,77.2
2018-05-10T05:03:16.505Z,77.1
2018-05-10T05:04:16.783Z,77.0
2018-05-10T05:05:17.074Z,76.8
2018-05-10T05:06:16.394Z,76.6
2018-05-10T05:07:16.672Z,76.4
2018-05-10T05:08:16.956Z,75.8
2018-05-10T05:09:17.273Z,75.5
2018-05-10T05:10:16.565Z,74.8
2018-05-10T05:11:16.613Z,74.8
2018-05-10T05:12:16.886Z,74.6
2018-05-10T05:13:17.169Z,74.1
2018-05-10T05:14:16.452Z,74.3
2018-05-10T05:15:16.748Z,74.0
2018-05-10T05:16:17.042Z,73.8
2018-05-10T05:17:17.318Z,73.7
2018-05-10T05:18:16.600Z,74.0
2018-05-10T05:19:16.863Z,74.0
2018-05-10T05:20:17.152Z,74.0
2018-05-10T05:21:17.190Z,73.7
2018-05-10T05:22:16.481Z,74.4
2018-05-10T05:23:16.762Z,74.7
2018-05-10T05:24:17.045Z,74.5
2018-05-10T05:25:17.685Z,74.9
2018-05-10T05:26:16.988Z,74.6
2018-05-10T05:27:17.274Z,75.2
2018-05-10T05:28:16.557Z,74.8
2018-05-10T05:29:16.840Z,75.2
2018-05-10T05:30:17.135Z,74.7
2018-05-10T05:31:17.178Z,74.9
2018-05-10T05:32:16.457Z,75.0
2018-05-10T05:33:16.733Z,75.2
2018-05-10T05:34:17.002Z,75.0
2018-05-10T05:35:17.297Z,74.9
2018-05-10T05:36:16.597Z,74.2
2018-05-10T05:37:16.879Z,74.2
2018-05-10T05:38:17.157Z,74.3
2018-05-10T05:39:16.445Z,74.3
2018-05-10T05:40:16.745Z,74.0
2018-05-10T05:41:17.095Z,74.4
2018-05-10T05:42:16.399Z,74.2
2018-05-10T05:43:16.843Z,74.3
2018-05-10T05:44:17.142Z,74.0
2018-05-10T05:45:16.403Z,74.0
2018-05-10T05:46:16.667Z,73.9
2018-05-10T05:47:16.944Z,73.8
2018-05-10T05:48:17.227Z,73.9
2018-05-10T05:49:16.510Z,74.2
2018-05-10T05:50:16.803Z,73.9
2018-05-10T05:51:16.958Z,73.8
2018-05-10T05:52:17.239Z,74.3
2018-05-10T05:53:16.537Z,73.8
2018-05-10T05:54:16.818Z,74.1
2018-05-10T05:55:17.069Z,73.8
2018-05-10T05:56:16.338Z,74.1
2018-05-10T05:57:16.627Z,74.4
2018-05-10T05:58:16.904Z,74.6
2018-05-10T05:59:17.183Z,74.4
2018-05-10T06:00:16.551Z,74.0
2018-05-10T06:01:16.623Z,73.5
2018-05-10T06:02:16.923Z,73.8
2018-05-10T06:03:17.233Z,73.1
2018-05-10T06:04:16.490Z,73.2
2018-05-10T06:05:16.789Z,72.8
2018-05-10T06:06:17.055Z,72.4
2018-05-10T06:07:16.327Z,72.3
2018-05-10T06:08:16.629Z,72.3
2018-05-10T06:09:16.913Z,72.3
2018-05-10T06:10:17.216Z,71.8
2018-05-10T06:11:17.250Z,71.2
2018-05-10T06:12:16.551Z,70.9
2018-05-10T06:13:16.836Z,70.2
2018-05-10T06:14:17.118Z,70.3
2018-05-10T06:15:16.423Z,70.2
2018-05-10T06:16:16.738Z,69.8
2018-05-10T06:17:17.022Z,69.9
2018-05-10T06:18:17.295Z,69.4
2018-05-10T06:19:16.594Z,68.4
2018-05-10T06:20:16.911Z,68.0
2018-05-10T06:21:16.920Z,67.5
2018-05-10T06:22:17.184Z,67.6
2018-05-10T06:23:16.458Z,67.2
2018-05-10T06:24:16.725Z,67.1
2018-05-10T06:25:17.420Z,66.7
2018-05-10T06:26:16.712Z,66.8
2018-05-10T06:27:16.993Z,66.3
2018-05-10T06:28:17.249Z,66.1
2018-05-10T06:29:16.546Z,65.2
2018-05-10T06:30:16.840Z,65.3
2018-05-10T06:31:16.898Z,63.8
2018-05-10T06:32:17.182Z,64.2
2018-05-10T06:33:16.464Z,65.1
2018-05-10T06:34:16.750Z,64.5
2018-05-10T06:35:17.039Z,63.4
2018-05-10T06:36:17.320Z,61.8
2018-05-10T06:37:16.592Z,61.6
2018-05-10T06:38:16.857Z,60.9
2018-05-10T06:39:17.140Z,60.5
2018-05-10T06:40:16.439Z,60.9
2018-05-10T06:41:16.463Z,59.8
2018-05-10T06:42:16.730Z,59.2
2018-05-10T06:43:17.009Z,59.0
2018-05-10T06:44:17.287Z,58.4
2018-05-10T06:45:16.592Z,58.4
2018-05-10T06:46:16.856Z,58.4
2018-05-10T06:47:17.130Z,58.6
2018-05-10T06:48:16.427Z,57.4
2018-05-10T06:49:16.725Z,56.7
2018-05-10T06:50:17.048Z,56.5
2018-05-10T06:51:17.384Z,55.7
2018-05-10T06:52:16.706Z,55.4
2018-05-10T06:53:16.998Z,54.8
2018-05-10T06:54:17.255Z,54.8
2018-05-10T06:55:16.523Z,53.7
2018-05-10T06:56:16.803Z,53.2
2018-05-10T06:57:17.099Z,53.1
2018-05-10T06:58:16.375Z,53.5
2018-05-10T06:59:16.656Z,54.2
2018-05-10T07:00:16.936Z,54.7
2018-05-10T07:01:16.988Z,54.2
2018-05-10T07:02:17.284Z,54.7
2018-05-10T07:03:16.701Z,53.9
2018-05-10T07:04:16.993Z,53.4
2018-05-10T07:05:17.284Z,52.2
2018-05-10T07:06:16.673Z,51.8
2018-05-10T07:07:16.935Z,51.5
2018-05-10T07:08:17.190Z,51.8
2018-05-10T07:09:16.514Z,52.1
2018-05-10T07:10:16.830Z,51.9
2018-05-10T07:11:16.868Z,51.4
2018-05-10T07:12:17.153Z,51.0
2018-05-10T07:13:16.432Z,51.1
2018-05-10T07:14:16.709Z,50.8
2018-05-10T07:15:17.013Z,50.5
2018-05-10T07:16:17.312Z,51.5
2018-05-10T07:17:16.613Z,51.2
2018-05-10T07:18:16.883Z,51.5
2018-05-10T07:19:17.166Z,51.2
2018-05-10T07:20:16.462Z,52.3
2018-05-10T07:21:16.497Z,52.5
2018-05-10T07:22:16.779Z,51.4
2018-05-10T07:23:17.060Z,51.0
2018-05-10T07:24:16.343Z,50.5
2018-05-10T07:25:16.929Z,49.8
2018-05-10T07:26:17.319Z,50.7
2018-05-10T07:27:16.602Z,50.8
2018-05-10T07:28:16.908Z,49.5
2018-05-10T07:29:17.191Z,47.8
2018-05-10T07:30:16.487Z,47.5
2018-05-10T07:31:16.545Z,48.0
2018-05-10T07:32:16.833Z,47.8
2018-05-10T07:33:17.114Z,49.0
2018-05-10T07:34:16.394Z,50.6
2018-05-10T07:35:16.661Z,50.0
2018-05-10T07:36:16.941Z,50.3
2018-05-10T07:37:17.246Z,50.1
2018-05-10T07:38:16.553Z,50.0
2018-05-10T07:39:16.847Z,50.2
2018-05-10T07:40:17.145Z,50.0
2018-05-10T07:41:17.179Z,51.3
2018-05-10T07:42:16.453Z,51.2
2018-05-10T07:43:16.730Z,52.3
2018-05-10T07:44:17.019Z,52.0
2018-05-10T07:45:17.316Z,52.3
2018-05-10T07:46:16.590Z,51.4
2018-05-10T07:47:17.001Z,50.2
2018-05-10T07:48:17.310Z,50.8
2018-05-10T07:49:16.599Z,51.0
2018-05-10T07:50:16.883Z,50.4
2018-05-10T07:51:16.938Z,50.3
2018-05-10T07:52:17.214Z,50.7
2018-05-10T07:53:16.803Z,49.5
2018-05-10T07:54:17.120Z,49.4
2018-05-10T07:55:16.413Z,50.2
2018-05-10T07:56:16.695Z,49.0
2018-05-10T07:57:16.972Z,47.8
2018-05-10T07:58:17.520Z,47.6
2018-05-10T07:59:16.827Z,46.5
2018-05-10T08:00:17.121Z,45.8
2018-05-10T08:01:17.165Z,45.5
2018-05-10T08:02:16.613Z,45.1
2018-05-10T08:03:16.983Z,46.5
2018-05-10T08:04:17.574Z,45.2
2018-05-10T08:05:16.864Z,42.8
2018-05-10T08:06:17.144Z,43.8
2018-05-10T08:07:16.428Z,45.0
2018-05-10T08:08:16.700Z,44.1
2018-05-10T08:09:16.994Z,45.1
2018-05-10T08:10:17.292Z,44.0
2018-05-10T08:11:16.328Z,45.6
2018-05-10T08:12:16.609Z,45.4
2018-05-10T08:13:16.889Z,45.5
2018-05-10T08:14:17.162Z,45.1
2018-05-10T08:15:16.459Z,42.9
2018-05-10T08:16:16.731Z,43.0
2018-05-10T08:17:17.093Z,43.5
2018-05-10T08:18:16.381Z,41.4
2018-05-10T08:19:16.665Z,42.5
2018-05-10T08:20:16.950Z,42.4
2018-05-10T08:21:17.001Z,42.0
2018-05-10T08:22:17.277Z,43.9
2018-05-10T08:23:16.558Z,44.0
2018-05-10T08:24:16.973Z,43.7
2018-05-10T08:25:17.251Z,43.2
2018-05-10T08:26:16.533Z,41.8
2018-05-10T08:27:16.800Z,41.8
2018-05-10T08:28:17.095Z,42.1
2018-05-10T08:29:16.392Z,42.3
2018-05-10T08:30:16.850Z,42.4
2018-05-10T08:31:16.713Z,44.2
2018-05-10T08:32:16.991Z,43.5
2018-05-10T08:33:17.276Z,42.9
2018-05-10T08:34:16.572Z,43.4
2018-05-10T08:35:16.855Z,41.5
2018-05-10T08:36:17.139Z,39.9
2018-05-10T08:37:16.428Z,38.6
2018-05-10T08:38:16.703Z,38.0
2018-05-10T08:39:16.977Z,38.5
2018-05-10T08:40:17.274Z,38.4
2018-05-10T08:41:17.303Z,36.8
2018-05-10T08:42:16.577Z,36.1
2018-05-10T08:43:16.866Z,37.1
2018-05-10T08:44:17.145Z,35.9
2018-05-10T08:45:16.412Z,37.8
2018-05-10T08:46:16.677Z,38.6
2018-05-10T08:47:16.950Z,37.1
2018-05-10T08:48:17.232Z,38.4
2018-05-10T08:49:16.522Z,37.6
2018-05-10T08:50:16.798Z,36.5
2018-05-10T08:51:16.840Z,36.2
2018-05-10T08:52:17.114Z,37.1
2018-05-10T08:53:16.406Z,36.3
2018-05-10T08:54:16.677Z,36.4
2018-05-10T08:55:16.963Z,37.0
2018-05-10T08:56:17.261Z,38.9
2018-05-10T08:57:16.558Z,40.2
2018-05-10T08:58:16.816Z,39.4
2018-05-10T08:59:17.077Z,38.4
2018-05-10T09:00:16.369Z,38.1
2018-05-10T09:01:16.426Z,37.0
2018-05-10T09:02:16.715Z,38.4
2018-05-10T09:03:17.001Z,37.7
2018-05-10T09:04:17.292Z,37.8
2018-05-10T09:05:16.579Z,36.1
2018-05-10T09:06:16.866Z,35.3
2018-05-10T09:07:17.228Z,37.8
2018-05-10T09:08:16.506Z,35.5
2018-05-10T09:09:16.816Z,34.3
2018-05-10T09:10:17.116Z,36.6
2018-05-10T09:11:17.142Z,36.4
2018-05-10T09:12:16.423Z,35.0
2018-05-10T09:13:16.717Z,36.2
2018-05-10T09:14:16.997Z,35.5
2018-05-10T09:15:17.277Z,35.5
2018-05-10T09:16:16.558Z,36.0
2018-05-10T09:17:16.832Z,35.8
2018-05-10T09:18:17.120Z,35.6
2018-05-10T09:19:16.411Z,36.0
2018-05-10T09:20:16.895Z,36.2
2018-05-10T09:21:16.759Z,35.6
2018-05-10T09:22:17.035Z,35.6
2018-05-10T09:23:17.300Z,35.5
2018-05-10T09:24:16.578Z,36.0
2018-05-10T09:25:16.851Z,36.7
2018-05-10T09:26:17.125Z,37.1
2018-05-10T09:27:16.410Z,34.6
2018-05-10T09:28:16.688Z,35.4
2018-05-10T09:29:16.972Z,34.3
2018-05-10T09:30:17.276Z,37.1
2018-05-10T09:31:17.312Z,35.4
2018-05-10T09:32:16.641Z,35.4
2018-05-10T09:33:16.919Z,36.5
2018-05-10T09:34:17.202Z,36.2
2018-05-10T09:35:16.486Z,35.8
2018-05-10T09:36:16.767Z,36.1
2018-05-10T09:37:17.057Z,34.8
2018-05-10T09:38:16.348Z,33.8
2018-05-10T09:39:16.773Z,33.9
2018-05-10T09:40:17.179Z,33.4
2018-05-10T09:41:17.211Z,32.0
2018-05-10T09:42:16.495Z,28.6
2018-05-10T09:43:16.782Z,27.9
2018-05-10T09:44:17.079Z,31.5
2018-05-10T09:45:16.376Z,31.4
2018-05-10T09:46:16.826Z,29.5
2018-05-10T09:47:17.206Z,31.6
2018-05-10T09:48:16.483Z,30.5
2018-05-10T09:49:16.759Z,30.5
2018-05-10T09:50:17.063Z,29.6
2018-05-10T09:51:17.104Z,28.2
2018-05-10T09:52:16.390Z,29.5
2018-05-10T09:53:16.665Z,30.6
2018-05-10T09:54:16.960Z,28.9
2018-05-10T09:55:17.246Z,30.1
2018-05-10T09:56:16.530Z,30.1
2018-05-10T09:57:16.810Z,30.1
2018-05-10T09:58:17.087Z,30.5
2018-05-10T09:59:16.372Z,31.0
2018-05-10T10:00:16.942Z,29.9
2018-05-10T10:01:16.709Z,30.2
2018-05-10T10:02:16.984Z,32.2
2018-05-10T10:03:17.263Z,31.5
2018-05-10T10:04:16.547Z,31.9
2018-05-10T10:05:16.821Z,32.1
2018-05-10T10:06:17.261Z,32.6
2018-05-10T10:07:16.550Z,31.8
2018-05-10T10:08:16.816Z,30.3
2018-05-10T10:09:17.094Z,29.6
2018-05-10T10:10:16.394Z,29.9
2018-05-10T10:11:16.425Z,29.7
2018-05-10T10:12:16.701Z,29.9
2018-05-10T10:13:17.003Z,30.1
2018-05-10T10:14:17.303Z,31.4
2018-05-10T10:15:16.628Z,31.1
2018-05-10T10:16:16.900Z,32.0
2018-05-10T10:17:17.173Z,30.9
2018-05-10T10:18:16.450Z,31.1
2018-05-10T10:19:16.708Z,29.4
2018-05-10T10:20:17.022Z,28.1
2018-05-10T10:21:17.057Z,27.9
2018-05-10T10:22:16.324Z,28.5
2018-05-10T10:23:16.589Z,29.3
2018-05-10T10:24:16.853Z,29.6
2018-05-10T10:25:17.178Z,28.8
2018-05-10T10:26:16.448Z,28.8
2018-05-10T10:27:16.875Z,29.1
2018-05-10T10:28:17.444Z,29.4
2018-05-10T10:29:16.724Z,29.3
2018-05-10T10:30:17.011Z,30.5
2018-05-10T10:31:17.071Z,30.0
2018-05-10T10:32:16.488Z,32.0
2018-05-10T10:33:16.802Z,31.2
2018-05-10T10:34:17.110Z,31.3
2018-05-10T10:35:16.399Z,30.8
2018-05-10T10:36:16.681Z,30.2
2018-05-10T10:37:16.962Z,29.0
2018-05-10T10:38:17.531Z,29.6
2018-05-10T10:39:16.829Z,29.6
2018-05-10T10:40:17.346Z,28.8
2018-05-10T10:41:17.169Z,29.4
2018-05-10T10:42:16.461Z,28.4
2018-05-10T10:43:16.749Z,29.9
2018-05-10T10:44:17.039Z,28.3
2018-05-10T10:45:17.329Z,28.1
2018-05-10T10:46:16.613Z,28.2
2018-05-10T10:47:16.892Z,28.2
2018-05-10T10:48:17.184Z,28.7
2018-05-10T10:49:16.489Z,28.5
2018-05-10T10:50:16.801Z,29.1
2018-05-10T10:51:16.815Z,28.2
2018-05-10T10:52:17.109Z,28.4
2018-05-10T10:53:16.387Z,29.8
2018-05-10T10:54:16.677Z,29.3
2018-05-10T10:55:16.967Z,28.3
2018-05-10T10:56:17.249Z,28.3
2018-05-10T10:57:16.540Z,27.9
2018-05-10T10:58:16.824Z,28.8
2018-05-10T10:59:17.111Z,29.4
2018-05-10T11:00:16.410Z,29.5
2018-05-10T11:01:16.451Z,30.0
2018-05-10T11:02:16.729Z,30.1
2018-05-10T11:03:16.999Z,31.8
2018-05-10T11:04:17.286Z,30.9
2018-05-10T11:05:16.561Z,30.4
2018-05-10T11:06:16.856Z,29.6
2018-05-10T11:07:17.139Z,28.8
2018-05-10T11:08:16.425Z,27.5
2018-05-10T11:09:17.037Z,26.0
2018-05-10T11:10:16.436Z,26.5
2018-05-10T11:11:16.478Z,24.6
2018-05-10T11:12:16.755Z,24.4
2018-05-10T11:13:17.049Z,24.2
2018-05-10T11:14:16.339Z,24.6
2018-05-10T11:15:16.632Z,25.4
2018-05-10T11:16:16.914Z,25.4
2018-05-10T11:17:17.185Z,26.6
2018-05-10T11:18:16.468Z,26.6
2018-05-10T11:19:16.727Z,27.5
2018-05-10T11:20:17.034Z,26.6
2018-05-10T11:21:17.063Z,26.5
2018-05-10T11:22:16.331Z,25.5
2018-05-10T11:23:16.592Z,26.6
2018-05-10T11:24:16.872Z,26.2
2018-05-10T11:25:17.156Z,28.0
2018-05-10T11:26:16.442Z,32.2
2018-05-10T11:27:16.880Z,33.8
2018-05-10T11:28:17.174Z,34.2
2018-05-10T11:29:16.448Z,35.2
2018-05-10T11:30:16.725Z,38.0
2018-05-10T11:31:16.809Z,38.6
2018-05-10T11:32:17.095Z,39.9
2018-05-10T11:33:16.650Z,40.8
2018-05-10T11:34:16.950Z,40.8
2018-05-10T11:35:17.229Z,41.3
2018-05-10T11:36:16.756Z,43.0
2018-05-10T11:37:17.051Z,43.1
2018-05-10T11:38:17.342Z,43.1
2018-05-10T11:39:16.633Z,43.2
2018-05-10T11:40:16.944Z,43.0
2018-05-10T11:41:16.951Z,43.6
2018-05-10T11:42:17.246Z,43.4
2018-05-10T11:43:16.526Z,43.4
2018-05-10T11:44:16.812Z,43.0
2018-05-10T11:45:17.085Z,43.7
2018-05-10T11:46:16.362Z,44.1
2018-05-10T11:47:16.650Z,44.4
2018-05-10T11:48:16.932Z,44.5
2018-05-10T11:49:17.222Z,44.6
2018-05-10T11:50:16.509Z,45.3
2018-05-10T11:51:16.544Z,45.0
2018-05-10T11:52:16.854Z,44.4
2018-05-10T11:53:17.137Z,44.2
2018-05-10T11:54:16.412Z,44.3
2018-05-10T11:55:16.709Z,43.9
2018-05-10T11:56:16.977Z,44.4
2018-05-10T11:57:17.412Z,44.3
2018-05-10T11:58:16.716Z,44.4
2018-05-10T11:59:17.010Z,44.2
2018-05-10T12:00:17.310Z,44.6
2018-05-10T12:01:16.374Z,44.3
2018-05-10T12:02:16.653Z,44.5
2018-05-10T12:03:16.944Z,45.9
2018-05-10T12:04:17.222Z,45.5
2018-05-10T12:05:16.502Z,45.1
2018-05-10T12:06:16.775Z,45.4
2018-05-10T12:07:17.070Z,45.2
2018-05-10T12:08:16.350Z,45.0
2018-05-10T12:09:16.623Z,45.3
2018-05-10T12:10:16.927Z,44.8
2018-05-10T12:11:16.966Z,45.2
2018-05-10T12:12:17.266Z,45.2
2018-05-10T12:13:16.548Z,45.0
2018-05-10T12:14:16.837Z,44.9
2018-05-10T12:15:17.130Z,44.8
2018-05-10T12:16:16.420Z,44.7
2018-05-10T12:17:16.700Z,45.2
2018-05-10T12:18:16.974Z,44.9
2018-05-10T12:19:17.957Z,45.4
2018-05-10T12:20:16.361Z,45.5
2018-05-10T12:21:16.396Z,45.6
2018-05-10T12:22:16.680Z,45.3
2018-05-10T12:23:16.964Z,45.5
2018-05-10T12:24:17.256Z,45.4
2018-05-10T12:25:16.551Z,45.9
2018-05-10T12:26:16.844Z,45.7
2018-05-10T12:27:17.118Z,46.3
2018-05-10T12:28:16.398Z,48.0
2018-05-10T12:29:16.697Z,47.2
2018-05-10T12:30:17.023Z,48.5
2018-05-10T12:31:17.026Z,51.2
2018-05-10T12:32:17.299Z,51.5
2018-05-10T12:33:16.581Z,54.6
2018-05-10T12:34:16.881Z,55.3
2018-05-10T12:35:17.361Z,56.1
2018-05-10T12:36:16.636Z,56.9
2018-05-10T12:37:16.921Z,57.2
2018-05-10T12:38:17.187Z,57.7
2018-05-10T12:39:16.511Z,57.6
2018-05-10T12:40:16.795Z,59.5
2018-05-10T12:41:16.858Z,60.4
2018-05-10T12:42:17.130Z,62.4
2018-05-10T12:43:16.429Z,62.6
2018-05-10T12:44:16.730Z,63.4
2018-05-10T12:45:17.023Z,63.9
2018-05-10T12:46:17.313Z,63.6
2018-05-10T12:47:16.581Z,64.0
2018-05-10T12:48:16.842Z,64.6
2018-05-10T12:49:17.110Z,65.0
2018-05-10T12:50:16.397Z,65.1
2018-05-10T12:51:16.445Z,65.8
2018-05-10T12:52:16.735Z,66.1
2018-05-10T12:53:17.016Z,66.0
2018-05-10T12:54:17.292Z,65.8
2018-05-10T12:55:16.605Z,66.2
2018-05-10T12:56:17.265Z,66.2
2018-05-10T12:57:16.594Z,65.7
2018-05-10T12:58:16.868Z,65.8
2018-05-10T12:59:17.151Z,66.3
2018-05-10T13:00:16.455Z,66.6
2018-05-10T13:01:16.496Z,67.5
2018-05-10T13:02:16.770Z,70.6
2018-05-10T13:03:17.048Z,70.7
2018-05-10T13:04:17.325Z,72.4
2018-05-10T13:05:16.590Z,73.3
2018-05-10T13:06:16.853Z,74.8
2018-05-10T13:07:17.138Z,76.2
2018-05-10T13:08:16.534Z,77.8
2018-05-10T13:09:16.821Z,79.7
2018-05-10T13:10:17.113Z,80.5
2018-05-10T13:11:17.151Z,85.0
2018-05-10T13:12:16.426Z,87.0
2018-05-10T13:13:16.799Z,87.2
2018-05-10T13:14:17.108Z,85.6
2018-05-10T13:15:16.389Z,86.7
2018-05-10T13:16:16.953Z,86.7
2018-05-10T13:17:16.332Z,86.7
2018-05-10T13:18:16.616Z,87.6